Portada
METAR-TAF:

METAR-TAF

Aeroports :

Doha, Qatar

latitud: 25-16-23N, longitud: 51-36-29E, altitud: 4 m

Observació

L'informe es va fer fa 32 minuts, a les 13:00 UTC
Vent 17 kt del Nord
Temperatura 39°C
Humitat 38%
Pressió 992 hPa
Visibilitat 10 km o més
sense núvols per sota de 1500 mi sense presència de cumulonimbus.

METAR: OTHH 141300Z AUTO 01017KT CAVOK 39/22 Q0992 NOSIG

Hora: 16:32 (13:32 UTC)

Pronòstic

L'informe es va fer fa 2 hores i 31 minuts, a les 11:01 UTC
Pronòstic vàlid del 14 a les 12 UTC al 15 a les 18 UTC
Vent 15 kt del Nord/Nord-Oest
Visibilitat: 9000 m
Temporalment
l' 14 a les 12 UTC al 14 a les 15 UTC
Vent 23 kt del Nord
Visibilitat: 5000 m
torb alta de pols
Evolucionant progressivament
l' 14 a les 17 UTC al 14 a les 19 UTC
Vent 8 kt del Nord-Oest
Evolucionant progressivament
l' 15 a les 04 UTC al 15 a les 06 UTC
Vent 16 kt del Nord/Nord-Oest

TAF: OTHH 141101Z 1412/1518 33015KT 9000 NSC TEMPO 1412/1415 35023KT 5000 BLDU BECMG 1417/1419 32008KT BECMG 1504/1506 34016KT

Observacions i pronòstics meteorològics de més de 4000 aeroports (METAR i TAF).

Les estacions disponibles són els punts grocs i vermells al mapa.

Posi el ratolí al punt desitjat per veure el nom de l'estació.

Feu clic per veure les observacions i els pronòstics meteorològics.

Per canviar el mapa: feu clic els botons verds amb una creu de color negre per apropar; al botó verd amb un guió per allunyar la imatge; o en les fletxes verdes per a mapes adjacents.


METAR-TAF: